sensor_id;sensor_type;location;lat;lon;timestamp;P1;durP1;ratioP1;P2;durP2;ratioP2
56363;SDS011;42261;52.094;4.326;2023-06-22T00:01:36;9.50;;;6.65;;
56363;SDS011;42261;52.094;4.326;2023-06-22T00:04:20;11.02;;;7.15;;
56363;SDS011;42261;52.094;4.326;2023-06-22T00:07:04;11.77;;;7.03;;
56363;SDS011;42261;52.094;4.326;2023-06-22T00:09:49;12.57;;;6.43;;
56363;SDS011;42261;52.094;4.326;2023-06-22T00:12:34;13.00;;;7.32;;
56363;SDS011;42261;52.094;4.326;2023-06-22T00:15:18;13.00;;;7.30;;
56363;SDS011;42261;52.094;4.326;2023-06-22T00:26:20;15.30;;;9.15;;
56363;SDS011;42261;52.094;4.326;2023-06-22T00:29:05;16.30;;;9.60;;
56363;SDS011;42261;52.094;4.326;2023-06-22T00:31:48;14.70;;;9.05;;
56363;SDS011;42261;52.094;4.326;2023-06-22T00:40:01;15.80;;;10.60;;
56363;SDS011;42261;52.094;4.326;2023-06-22T00:42:45;15.80;;;10.25;;
56363;SDS011;42261;52.094;4.326;2023-06-22T00:45:29;18.40;;;10.20;;
56363;SDS011;42261;52.094;4.326;2023-06-22T00:48:13;13.00;;;8.10;;
56363;SDS011;42261;52.094;4.326;2023-06-22T00:50:58;16.50;;;11.70;;
56363;SDS011;42261;52.094;4.326;2023-06-22T00:53:43;15.80;;;8.95;;
56363;SDS011;42261;52.094;4.326;2023-06-22T00:56:27;15.50;;;9.70;;
56363;SDS011;42261;52.094;4.326;2023-06-22T00:59:14;18.00;;;10.63;;
56363;SDS011;42261;52.094;4.326;2023-06-22T01:02:01;13.15;;;8.75;;
56363;SDS011;42261;52.094;4.326;2023-06-22T01:04:45;15.55;;;9.35;;
56363;SDS011;42261;52.094;4.326;2023-06-22T01:07:38;16.33;;;10.48;;
56363;SDS011;42261;52.094;4.326;2023-06-22T01:10:25;21.25;;;10.70;;
56363;SDS011;42261;52.094;4.326;2023-06-22T01:16:05;19.60;;;12.50;;
56363;SDS011;42261;52.094;4.326;2023-06-22T01:18:52;16.60;;;11.27;;
56363;SDS011;42261;52.094;4.326;2023-06-22T01:21:38;17.23;;;10.40;;
56363;SDS011;42261;52.094;4.326;2023-06-22T01:24:23;19.15;;;9.90;;
56363;SDS011;42261;52.094;4.326;2023-06-22T01:27:28;14.98;;;9.20;;
56363;SDS011;42261;52.094;4.326;2023-06-22T01:30:16;14.35;;;9.15;;
56363;SDS011;42261;52.094;4.326;2023-06-22T01:33:00;14.00;;;8.70;;
56363;SDS011;42261;52.094;4.326;2023-06-22T01:35:45;14.23;;;9.50;;
56363;SDS011;42261;52.094;4.326;2023-06-22T01:38:30;15.50;;;8.73;;
56363;SDS011;42261;52.094;4.326;2023-06-22T01:41:16;17.27;;;9.50;;
56363;SDS011;42261;52.094;4.326;2023-06-22T01:44:01;16.08;;;9.75;;
56363;SDS011;42261;52.094;4.326;2023-06-22T01:46:46;14.90;;;9.68;;
56363;SDS011;42261;52.094;4.326;2023-06-22T01:49:31;14.57;;;8.90;;
56363;SDS011;42261;52.094;4.326;2023-06-22T01:52:15;17.17;;;9.80;;
56363;SDS011;42261;52.094;4.326;2023-06-22T01:54:59;15.35;;;9.02;;
56363;SDS011;42261;52.094;4.326;2023-06-22T01:57:44;15.50;;;8.20;;
56363;SDS011;42261;52.094;4.326;2023-06-22T02:00:30;15.52;;;9.55;;
56363;SDS011;42261;52.094;4.326;2023-06-22T02:03:18;11.82;;;8.52;;
56363;SDS011;42261;52.094;4.326;2023-06-22T02:06:04;15.20;;;9.10;;
56363;SDS011;42261;52.094;4.326;2023-06-22T02:08:52;15.13;;;9.55;;
56363;SDS011;42261;52.094;4.326;2023-06-22T02:11:37;16.93;;;9.20;;
56363;SDS011;42261;52.094;4.326;2023-06-22T02:19:53;16.73;;;9.13;;
56363;SDS011;42261;52.094;4.326;2023-06-22T02:22:38;15.43;;;9.32;;
56363;SDS011;42261;52.094;4.326;2023-06-22T02:25:19;18.15;;;9.68;;
56363;SDS011;42261;52.094;4.326;2023-06-22T02:28:03;14.13;;;9.05;;
56363;SDS011;42261;52.094;4.326;2023-06-22T02:30:48;11.98;;;7.88;;
56363;SDS011;42261;52.094;4.326;2023-06-22T02:33:34;16.30;;;8.23;;
56363;SDS011;42261;52.094;4.326;2023-06-22T02:36:20;16.45;;;9.13;;
56363;SDS011;42261;52.094;4.326;2023-06-22T02:47:06;14.20;;;8.38;;
56363;SDS011;42261;52.094;4.326;2023-06-22T02:51:34;14.13;;;8.23;;
56363;SDS011;42261;52.094;4.326;2023-06-22T02:54:18;13.95;;;8.93;;
56363;SDS011;42261;52.094;4.326;2023-06-22T02:57:03;18.50;;;9.52;;
56363;SDS011;42261;52.094;4.326;2023-06-22T02:59:47;14.75;;;9.57;;
56363;SDS011;42261;52.094;4.326;2023-06-22T03:02:31;17.33;;;10.27;;
56363;SDS011;42261;52.094;4.326;2023-06-22T03:08:25;15.90;;;9.80;;
56363;SDS011;42261;52.094;4.326;2023-06-22T03:11:09;20.60;;;12.60;;
56363;SDS011;42261;52.094;4.326;2023-06-22T03:13:57;16.70;;;10.40;;
56363;SDS011;42261;52.094;4.326;2023-06-22T03:16:41;16.80;;;9.00;;
56363;SDS011;42261;52.094;4.326;2023-06-22T03:19:26;20.10;;;13.40;;
56363;SDS011;42261;52.094;4.326;2023-06-22T03:22:10;20.10;;;13.70;;
56363;SDS011;42261;52.094;4.326;2023-06-22T03:24:54;17.65;;;11.50;;
56363;SDS011;42261;52.094;4.326;2023-06-22T03:27:42;18.25;;;11.43;;
56363;SDS011;42261;52.094;4.326;2023-06-22T03:30:28;20.52;;;12.50;;
56363;SDS011;42261;52.094;4.326;2023-06-22T03:43:32;23.80;;;13.70;;
56363;SDS011;42261;52.094;4.326;2023-06-22T03:46:18;23.33;;;14.07;;
56363;SDS011;42261;52.094;4.326;2023-06-22T03:49:03;25.92;;;13.38;;
56363;SDS011;42261;52.094;4.326;2023-06-22T03:51:49;22.70;;;12.52;;
56363;SDS011;42261;52.094;4.326;2023-06-22T03:54:33;24.80;;;14.35;;
56363;SDS011;42261;52.094;4.326;2023-06-22T03:57:18;21.27;;;12.70;;
56363;SDS011;42261;52.094;4.326;2023-06-22T04:00:02;25.42;;;14.05;;
56363;SDS011;42261;52.094;4.326;2023-06-22T04:02:49;20.77;;;12.32;;
56363;SDS011;42261;52.094;4.326;2023-06-22T04:05:33;20.35;;;11.95;;
56363;SDS011;42261;52.094;4.326;2023-06-22T04:08:18;20.02;;;11.82;;
56363;SDS011;42261;52.094;4.326;2023-06-22T04:11:03;23.85;;;12.98;;
56363;SDS011;42261;52.094;4.326;2023-06-22T04:13:47;21.70;;;12.55;;
56363;SDS011;42261;52.094;4.326;2023-06-22T04:16:32;21.73;;;13.55;;
56363;SDS011;42261;52.094;4.326;2023-06-22T04:19:21;23.30;;;12.93;;
56363;SDS011;42261;52.094;4.326;2023-06-22T04:24:52;24.15;;;12.02;;
56363;SDS011;42261;52.094;4.326;2023-06-22T04:27:36;21.38;;;13.00;;
56363;SDS011;42261;52.094;4.326;2023-06-22T04:30:23;19.17;;;12.23;;
56363;SDS011;42261;52.094;4.326;2023-06-22T04:33:07;20.15;;;12.90;;
56363;SDS011;42261;52.094;4.326;2023-06-22T04:35:53;19.05;;;11.57;;
56363;SDS011;42261;52.094;4.326;2023-06-22T04:38:37;21.23;;;13.02;;
56363;SDS011;42261;52.094;4.326;2023-06-22T04:41:21;26.83;;;12.73;;
56363;SDS011;42261;52.094;4.326;2023-06-22T04:44:08;21.48;;;12.80;;
56363;SDS011;42261;52.094;4.326;2023-06-22T04:46:54;22.17;;;12.43;;
56363;SDS011;42261;52.094;4.326;2023-06-22T04:49:38;21.10;;;11.50;;
56363;SDS011;42261;52.094;4.326;2023-06-22T04:52:24;20.90;;;12.82;;
56363;SDS011;42261;52.094;4.326;2023-06-22T04:55:10;22.67;;;13.05;;
56363;SDS011;42261;52.094;4.326;2023-06-22T04:57:55;22.58;;;13.25;;
56363;SDS011;42261;52.094;4.326;2023-06-22T05:00:39;25.05;;;13.52;;
56363;SDS011;42261;52.094;4.326;2023-06-22T05:03:24;21.92;;;13.43;;
56363;SDS011;42261;52.094;4.326;2023-06-22T05:09:09;23.23;;;12.95;;
56363;SDS011;42261;52.094;4.326;2023-06-22T05:11:53;23.58;;;13.52;;
56363;SDS011;42261;52.094;4.326;2023-06-22T05:14:37;23.85;;;13.63;;
56363;SDS011;42261;52.094;4.326;2023-06-22T05:17:21;24.98;;;13.88;;
56363;SDS011;42261;52.094;4.326;2023-06-22T05:22:07;20.08;;;11.80;;
56363;SDS011;42261;52.094;4.326;2023-06-22T05:41:19;23.00;;;14.50;;
56363;SDS011;42261;52.094;4.326;2023-06-22T05:46:47;26.30;;;15.00;;
56363;SDS011;42261;52.094;4.326;2023-06-22T05:49:32;22.25;;;13.45;;
56363;SDS011;42261;52.094;4.326;2023-06-22T05:52:16;24.58;;;15.70;;
56363;SDS011;42261;52.094;4.326;2023-06-22T05:55:01;22.48;;;14.32;;
56363;SDS011;42261;52.094;4.326;2023-06-22T05:59:48;25.38;;;14.20;;
56363;SDS011;42261;52.094;4.326;2023-06-22T06:06:24;23.77;;;14.00;;
56363;SDS011;42261;52.094;4.326;2023-06-22T06:11:56;24.80;;;14.00;;
56363;SDS011;42261;52.094;4.326;2023-06-22T06:21:56;22.27;;;12.20;;
56363;SDS011;42261;52.094;4.326;2023-06-22T06:55:24;17.85;;;11.00;;
56363;SDS011;42261;52.094;4.326;2023-06-22T07:00:14;14.20;;;9.50;;
56363;SDS011;42261;52.094;4.326;2023-06-22T07:02:59;16.58;;;9.30;;
56363;SDS011;42261;52.094;4.326;2023-06-22T07:05:43;16.15;;;8.43;;
56363;SDS011;42261;52.094;4.326;2023-06-22T07:08:27;15.02;;;8.88;;
56363;SDS011;42261;52.094;4.326;2023-06-22T07:11:13;13.95;;;7.93;;
56363;SDS011;42261;52.094;4.326;2023-06-22T07:13:57;10.18;;;7.20;;
56363;SDS011;42261;52.094;4.326;2023-06-22T07:16:41;12.27;;;8.50;;
56363;SDS011;42261;52.094;4.326;2023-06-22T07:19:27;14.45;;;7.68;;
56363;SDS011;42261;52.094;4.326;2023-06-22T07:22:12;14.07;;;8.55;;
56363;SDS011;42261;52.094;4.326;2023-06-22T07:24:56;12.48;;;7.18;;
56363;SDS011;42261;52.094;4.326;2023-06-22T07:28:00;11.23;;;6.95;;
56363;SDS011;42261;52.094;4.326;2023-06-22T07:30:45;9.02;;;5.40;;
56363;SDS011;42261;52.094;4.326;2023-06-22T07:33:29;10.95;;;5.47;;
56363;SDS011;42261;52.094;4.326;2023-06-22T07:36:14;8.90;;;5.90;;
56363;SDS011;42261;52.094;4.326;2023-06-22T07:38:59;8.55;;;5.50;;
56363;SDS011;42261;52.094;4.326;2023-06-22T07:41:43;6.70;;;4.20;;
56363;SDS011;42261;52.094;4.326;2023-06-22T07:44:27;11.13;;;5.63;;
56363;SDS011;42261;52.094;4.326;2023-06-22T07:47:11;8.43;;;5.13;;
56363;SDS011;42261;52.094;4.326;2023-06-22T07:49:58;8.93;;;4.93;;
56363;SDS011;42261;52.094;4.326;2023-06-22T07:52:45;10.50;;;5.40;;
56363;SDS011;42261;52.094;4.326;2023-06-22T07:55:32;12.32;;;5.63;;
56363;SDS011;42261;52.094;4.326;2023-06-22T07:58:16;8.35;;;4.55;;
56363;SDS011;42261;52.094;4.326;2023-06-22T08:01:02;8.88;;;4.63;;
56363;SDS011;42261;52.094;4.326;2023-06-22T08:03:50;5.97;;;3.28;;
56363;SDS011;42261;52.094;4.326;2023-06-22T08:06:35;7.35;;;3.80;;
56363;SDS011;42261;52.094;4.326;2023-06-22T08:09:20;6.10;;;4.40;;
56363;SDS011;42261;52.094;4.326;2023-06-22T08:12:06;7.57;;;3.05;;
56363;SDS011;42261;52.094;4.326;2023-06-22T08:14:50;4.60;;;2.97;;
56363;SDS011;42261;52.094;4.326;2023-06-22T08:17:34;4.47;;;2.20;;
56363;SDS011;42261;52.094;4.326;2023-06-22T08:22:30;5.30;;;3.20;;
56363;SDS011;42261;52.094;4.326;2023-06-22T08:25:17;7.10;;;3.50;;
56363;SDS011;42261;52.094;4.326;2023-06-22T08:28:03;4.85;;;3.42;;
56363;SDS011;42261;52.094;4.326;2023-06-22T08:30:47;4.13;;;2.42;;
56363;SDS011;42261;52.094;4.326;2023-06-22T08:33:32;4.55;;;2.47;;
56363;SDS011;42261;52.094;4.326;2023-06-22T08:36:16;4.10;;;2.10;;
56363;SDS011;42261;52.094;4.326;2023-06-22T08:41:06;3.83;;;2.28;;
56363;SDS011;42261;52.094;4.326;2023-06-22T08:43:50;4.47;;;2.65;;
56363;SDS011;42261;52.094;4.326;2023-06-22T08:46:35;4.53;;;2.05;;
56363;SDS011;42261;52.094;4.326;2023-06-22T08:49:20;4.43;;;2.28;;
56363;SDS011;42261;52.094;4.326;2023-06-22T08:52:04;6.03;;;2.47;;
56363;SDS011;42261;52.094;4.326;2023-06-22T08:54:48;5.65;;;3.28;;
56363;SDS011;42261;52.094;4.326;2023-06-22T08:57:32;5.93;;;2.90;;
56363;SDS011;42261;52.094;4.326;2023-06-22T09:00:16;4.38;;;2.70;;
56363;SDS011;42261;52.094;4.326;2023-06-22T09:03:41;6.55;;;2.72;;
56363;SDS011;42261;52.094;4.326;2023-06-22T09:09:56;4.53;;;2.22;;
56363;SDS011;42261;52.094;4.326;2023-06-22T09:12:40;4.78;;;2.92;;
56363;SDS011;42261;52.094;4.326;2023-06-22T09:18:24;4.90;;;2.70;;
56363;SDS011;42261;52.094;4.326;2023-06-22T09:27:43;5.47;;;3.10;;
56363;SDS011;42261;52.094;4.326;2023-06-22T09:30:27;4.90;;;2.70;;
56363;SDS011;42261;52.094;4.326;2023-06-22T09:36:41;3.30;;;2.00;;
56363;SDS011;42261;52.094;4.326;2023-06-22T09:39:25;3.40;;;2.28;;
56363;SDS011;42261;52.094;4.326;2023-06-22T09:42:09;4.70;;;2.60;;
56363;SDS011;42261;52.094;4.326;2023-06-22T09:47:38;5.70;;;3.40;;
56363;SDS011;42261;52.094;4.326;2023-06-22T09:50:22;3.80;;;2.70;;
56363;SDS011;42261;52.094;4.326;2023-06-22T09:53:07;3.72;;;2.50;;
56363;SDS011;42261;52.094;4.326;2023-06-22T09:55:51;4.90;;;2.70;;
56363;SDS011;42261;52.094;4.326;2023-06-22T09:58:36;4.87;;;2.60;;
56363;SDS011;42261;52.094;4.326;2023-06-22T10:01:20;5.60;;;2.20;;
56363;SDS011;42261;52.094;4.326;2023-06-22T10:04:05;4.60;;;2.70;;
56363;SDS011;42261;52.094;4.326;2023-06-22T10:06:49;7.25;;;3.47;;
56363;SDS011;42261;52.094;4.326;2023-06-22T10:09:33;4.75;;;3.50;;
56363;SDS011;42261;52.094;4.326;2023-06-22T10:12:17;6.88;;;3.42;;
56363;SDS011;42261;52.094;4.326;2023-06-22T10:17:05;10.15;;;6.47;;
56363;SDS011;42261;52.094;4.326;2023-06-22T10:22:42;13.90;;;8.13;;
56363;SDS011;42261;52.094;4.326;2023-06-22T10:25:27;9.50;;;6.45;;
56363;SDS011;42261;52.094;4.326;2023-06-22T10:31:48;8.43;;;3.70;;
56363;SDS011;42261;52.094;4.326;2023-06-22T10:34:32;9.10;;;5.28;;
56363;SDS011;42261;52.094;4.326;2023-06-22T10:37:17;7.88;;;6.05;;
56363;SDS011;42261;52.094;4.326;2023-06-22T10:40:00;6.53;;;5.30;;
56363;SDS011;42261;52.094;4.326;2023-06-22T10:45:04;5.70;;;3.97;;
56363;SDS011;42261;52.094;4.326;2023-06-22T10:47:50;5.32;;;3.35;;
56363;SDS011;42261;52.094;4.326;2023-06-22T10:53:40;5.60;;;3.40;;
56363;SDS011;42261;52.094;4.326;2023-06-22T10:56:26;7.35;;;4.65;;
56363;SDS011;42261;52.094;4.326;2023-06-22T11:04:11;9.32;;;6.30;;
56363;SDS011;42261;52.094;4.326;2023-06-22T11:06:55;9.65;;;4.30;;
56363;SDS011;42261;52.094;4.326;2023-06-22T11:09:42;4.85;;;3.70;;
56363;SDS011;42261;52.094;4.326;2023-06-22T11:12:27;8.52;;;3.42;;
56363;SDS011;42261;52.094;4.326;2023-06-22T11:22:13;7.82;;;4.35;;
56363;SDS011;42261;52.094;4.326;2023-06-22T11:25:07;7.47;;;5.32;;
56363;SDS011;42261;52.094;4.326;2023-06-22T11:27:52;4.47;;;4.07;;
56363;SDS011;42261;52.094;4.326;2023-06-22T11:33:26;8.48;;;5.00;;
56363;SDS011;42261;52.094;4.326;2023-06-22T11:36:12;7.43;;;4.95;;
56363;SDS011;42261;52.094;4.326;2023-06-22T11:38:57;7.80;;;5.65;;
56363;SDS011;42261;52.094;4.326;2023-06-22T11:41:41;7.18;;;5.07;;
56363;SDS011;42261;52.094;4.326;2023-06-22T12:10:05;10.63;;;7.32;;
56363;SDS011;42261;52.094;4.326;2023-06-22T12:12:49;8.05;;;6.15;;
56363;SDS011;42261;52.094;4.326;2023-06-22T12:15:34;9.60;;;6.68;;
56363;SDS011;42261;52.094;4.326;2023-06-22T12:18:18;13.48;;;6.40;;
56363;SDS011;42261;52.094;4.326;2023-06-22T12:21:05;10.57;;;6.40;;
56363;SDS011;42261;52.094;4.326;2023-06-22T12:23:49;10.00;;;6.68;;
56363;SDS011;42261;52.094;4.326;2023-06-22T12:26:33;14.02;;;10.07;;
56363;SDS011;42261;52.094;4.326;2023-06-22T12:29:19;13.25;;;10.10;;
56363;SDS011;42261;52.094;4.326;2023-06-22T12:32:04;14.18;;;11.10;;
56363;SDS011;42261;52.094;4.326;2023-06-22T12:34:49;17.55;;;11.82;;
56363;SDS011;42261;52.094;4.326;2023-06-22T12:53:32;14.98;;;11.30;;
56363;SDS011;42261;52.094;4.326;2023-06-22T12:56:16;15.93;;;11.27;;
56363;SDS011;42261;52.094;4.326;2023-06-22T12:59:02;14.77;;;10.68;;
56363;SDS011;42261;52.094;4.326;2023-06-22T13:01:48;14.18;;;9.90;;
56363;SDS011;42261;52.094;4.326;2023-06-22T13:04:33;13.93;;;9.35;;
56363;SDS011;42261;52.094;4.326;2023-06-22T13:07:19;16.83;;;9.63;;
56363;SDS011;42261;52.094;4.326;2023-06-22T13:14:35;12.32;;;9.15;;
56363;SDS011;42261;52.094;4.326;2023-06-22T13:17:19;14.40;;;9.75;;
56363;SDS011;42261;52.094;4.326;2023-06-22T13:25:53;10.82;;;8.07;;
56363;SDS011;42261;52.094;4.326;2023-06-22T13:28:37;15.95;;;9.70;;
56363;SDS011;42261;52.094;4.326;2023-06-22T13:31:21;11.60;;;7.70;;
56363;SDS011;42261;52.094;4.326;2023-06-22T13:34:06;22.92;;;8.68;;
56363;SDS011;42261;52.094;4.326;2023-06-22T13:36:50;11.25;;;7.47;;
56363;SDS011;42261;52.094;4.326;2023-06-22T13:39:34;12.95;;;8.23;;
56363;SDS011;42261;52.094;4.326;2023-06-22T13:42:18;13.25;;;7.72;;
56363;SDS011;42261;52.094;4.326;2023-06-22T13:45:03;11.02;;;7.70;;
56363;SDS011;42261;52.094;4.326;2023-06-22T13:50:32;10.13;;;7.03;;
56363;SDS011;42261;52.094;4.326;2023-06-22T13:56:04;10.30;;;7.20;;
56363;SDS011;42261;52.094;4.326;2023-06-22T13:58:47;10.75;;;8.63;;
56363;SDS011;42261;52.094;4.326;2023-06-22T14:13:44;11.77;;;8.30;;
56363;SDS011;42261;52.094;4.326;2023-06-22T14:21:32;12.02;;;6.75;;
56363;SDS011;42261;52.094;4.326;2023-06-22T14:24:16;11.25;;;6.75;;
56363;SDS011;42261;52.094;4.326;2023-06-22T14:27:01;8.80;;;5.95;;
56363;SDS011;42261;52.094;4.326;2023-06-22T15:02:40;19.70;;;10.52;;
56363;SDS011;42261;52.094;4.326;2023-06-22T15:05:24;13.10;;;9.30;;
56363;SDS011;42261;52.094;4.326;2023-06-22T15:08:10;10.23;;;8.70;;
56363;SDS011;42261;52.094;4.326;2023-06-22T15:10:54;12.27;;;8.52;;
56363;SDS011;42261;52.094;4.326;2023-06-22T15:13:40;14.98;;;10.27;;
56363;SDS011;42261;52.094;4.326;2023-06-22T15:16:24;14.48;;;9.68;;
56363;SDS011;42261;52.094;4.326;2023-06-22T15:19:08;15.93;;;10.00;;
56363;SDS011;42261;52.094;4.326;2023-06-22T15:21:53;13.07;;;7.97;;
56363;SDS011;42261;52.094;4.326;2023-06-22T15:24:37;11.32;;;7.55;;
56363;SDS011;42261;52.094;4.326;2023-06-22T15:27:21;12.10;;;8.18;;
56363;SDS011;42261;52.094;4.326;2023-06-22T15:30:05;14.80;;;8.82;;
56363;SDS011;42261;52.094;4.326;2023-06-22T15:32:49;12.27;;;8.02;;
56363;SDS011;42261;52.094;4.326;2023-06-22T15:35:33;14.05;;;7.25;;
56363;SDS011;42261;52.094;4.326;2023-06-22T15:38:17;14.00;;;7.40;;
56363;SDS011;42261;52.094;4.326;2023-06-22T15:41:01;10.73;;;7.22;;
56363;SDS011;42261;52.094;4.326;2023-06-22T15:43:46;13.70;;;7.45;;
56363;SDS011;42261;52.094;4.326;2023-06-22T15:46:30;10.27;;;6.18;;
56363;SDS011;42261;52.094;4.326;2023-06-22T15:49:16;10.52;;;6.43;;
56363;SDS011;42261;52.094;4.326;2023-06-22T15:52:00;7.50;;;5.63;;
56363;SDS011;42261;52.094;4.326;2023-06-22T15:54:45;10.35;;;5.43;;
56363;SDS011;42261;52.094;4.326;2023-06-22T15:57:29;10.93;;;5.15;;
56363;SDS011;42261;52.094;4.326;2023-06-22T16:00:14;8.10;;;4.93;;
56363;SDS011;42261;52.094;4.326;2023-06-22T16:02:58;7.53;;;3.92;;
56363;SDS011;42261;52.094;4.326;2023-06-22T16:05:42;8.95;;;4.53;;
56363;SDS011;42261;52.094;4.326;2023-06-22T16:08:26;7.13;;;3.90;;
56363;SDS011;42261;52.094;4.326;2023-06-22T16:11:13;5.63;;;3.25;;
56363;SDS011;42261;52.094;4.326;2023-06-22T16:13:57;5.85;;;3.20;;
56363;SDS011;42261;52.094;4.326;2023-06-22T16:16:41;6.15;;;3.20;;
56363;SDS011;42261;52.094;4.326;2023-06-22T16:19:25;9.98;;;3.30;;
56363;SDS011;42261;52.094;4.326;2023-06-22T16:22:09;5.28;;;2.67;;
56363;SDS011;42261;52.094;4.326;2023-06-22T16:24:53;5.20;;;2.80;;
56363;SDS011;42261;52.094;4.326;2023-06-22T16:27:39;3.28;;;2.45;;
56363;SDS011;42261;52.094;4.326;2023-06-22T16:30:23;5.53;;;2.85;;
56363;SDS011;42261;52.094;4.326;2023-06-22T16:33:07;3.72;;;2.08;;
56363;SDS011;42261;52.094;4.326;2023-06-22T16:35:51;5.20;;;2.00;;
56363;SDS011;42261;52.094;4.326;2023-06-22T16:38:35;6.13;;;1.90;;
56363;SDS011;42261;52.094;4.326;2023-06-22T16:41:21;5.35;;;1.80;;
56363;SDS011;42261;52.094;4.326;2023-06-22T16:44:06;5.55;;;1.73;;
56363;SDS011;42261;52.094;4.326;2023-06-22T16:46:50;6.53;;;2.22;;
56363;SDS011;42261;52.094;4.326;2023-06-22T16:49:34;7.30;;;2.95;;
56363;SDS011;42261;52.094;4.326;2023-06-22T16:52:20;4.63;;;1.85;;
56363;SDS011;42261;52.094;4.326;2023-06-22T16:55:07;5.35;;;2.20;;
56363;SDS011;42261;52.094;4.326;2023-06-22T16:57:53;5.28;;;2.20;;
56363;SDS011;42261;52.094;4.326;2023-06-22T17:00:38;5.90;;;2.08;;
56363;SDS011;42261;52.094;4.326;2023-06-22T17:03:28;7.13;;;2.15;;
56363;SDS011;42261;52.094;4.326;2023-06-22T17:06:14;5.05;;;2.20;;
56363;SDS011;42261;52.094;4.326;2023-06-22T17:09:00;9.23;;;2.13;;
56363;SDS011;42261;52.094;4.326;2023-06-22T17:11:45;6.68;;;1.95;;
56363;SDS011;42261;52.094;4.326;2023-06-22T17:14:29;6.38;;;2.35;;
56363;SDS011;42261;52.094;4.326;2023-06-22T17:17:15;4.18;;;1.83;;
56363;SDS011;42261;52.094;4.326;2023-06-22T17:19:59;3.42;;;1.60;;
56363;SDS011;42261;52.094;4.326;2023-06-22T17:22:44;4.07;;;1.88;;
56363;SDS011;42261;52.094;4.326;2023-06-22T17:25:29;4.63;;;2.08;;
56363;SDS011;42261;52.094;4.326;2023-06-22T17:31:08;6.78;;;1.90;;
56363;SDS011;42261;52.094;4.326;2023-06-22T17:33:52;5.72;;;2.00;;
56363;SDS011;42261;52.094;4.326;2023-06-22T17:36:55;6.07;;;1.80;;
56363;SDS011;42261;52.094;4.326;2023-06-22T17:39:39;3.38;;;1.83;;
56363;SDS011;42261;52.094;4.326;2023-06-22T17:42:28;6.50;;;1.95;;
56363;SDS011;42261;52.094;4.326;2023-06-22T17:45:20;7.60;;;2.70;;
56363;SDS011;42261;52.094;4.326;2023-06-22T17:48:05;5.82;;;1.83;;
56363;SDS011;42261;52.094;4.326;2023-06-22T17:50:51;7.25;;;2.55;;
56363;SDS011;42261;52.094;4.326;2023-06-22T17:53:35;8.40;;;2.03;;
56363;SDS011;42261;52.094;4.326;2023-06-22T17:56:19;4.10;;;1.83;;
56363;SDS011;42261;52.094;4.326;2023-06-22T17:59:05;5.25;;;1.98;;
56363;SDS011;42261;52.094;4.326;2023-06-22T18:01:50;4.78;;;1.83;;
56363;SDS011;42261;52.094;4.326;2023-06-22T18:04:35;7.63;;;2.10;;
56363;SDS011;42261;52.094;4.326;2023-06-22T18:07:20;7.20;;;1.90;;
56363;SDS011;42261;52.094;4.326;2023-06-22T18:10:05;7.28;;;2.50;;
56363;SDS011;42261;52.094;4.326;2023-06-22T18:12:50;8.15;;;2.47;;
56363;SDS011;42261;52.094;4.326;2023-06-22T18:15:35;16.00;;;3.25;;
56363;SDS011;42261;52.094;4.326;2023-06-22T18:18:21;7.63;;;2.67;;
56363;SDS011;42261;52.094;4.326;2023-06-22T18:21:05;7.65;;;2.33;;
56363;SDS011;42261;52.094;4.326;2023-06-22T18:23:50;6.10;;;2.45;;
56363;SDS011;42261;52.094;4.326;2023-06-22T18:26:37;5.88;;;2.53;;
56363;SDS011;42261;52.094;4.326;2023-06-22T18:29:22;5.03;;;2.60;;
56363;SDS011;42261;52.094;4.326;2023-06-22T18:32:08;6.47;;;2.50;;
56363;SDS011;42261;52.094;4.326;2023-06-22T18:34:52;6.85;;;2.30;;
56363;SDS011;42261;52.094;4.326;2023-06-22T18:37:38;7.05;;;2.58;;
56363;SDS011;42261;52.094;4.326;2023-06-22T18:40:22;3.85;;;1.92;;
56363;SDS011;42261;52.094;4.326;2023-06-22T18:43:07;6.32;;;2.20;;
56363;SDS011;42261;52.094;4.326;2023-06-22T18:45:51;4.80;;;2.30;;
56363;SDS011;42261;52.094;4.326;2023-06-22T18:48:35;11.43;;;2.28;;
56363;SDS011;42261;52.094;4.326;2023-06-22T18:51:18;6.35;;;2.50;;
56363;SDS011;42261;52.094;4.326;2023-06-22T18:54:03;8.45;;;2.33;;
56363;SDS011;42261;52.094;4.326;2023-06-22T18:56:54;7.30;;;2.13;;
56363;SDS011;42261;52.094;4.326;2023-06-22T18:59:49;8.93;;;2.55;;
56363;SDS011;42261;52.094;4.326;2023-06-22T19:05:39;6.32;;;2.40;;
56363;SDS011;42261;52.094;4.326;2023-06-22T19:08:24;8.35;;;2.63;;
56363;SDS011;42261;52.094;4.326;2023-06-22T19:11:10;5.82;;;2.33;;
56363;SDS011;42261;52.094;4.326;2023-06-22T19:13:54;7.55;;;2.50;;
56363;SDS011;42261;52.094;4.326;2023-06-22T19:16:39;6.15;;;3.03;;
56363;SDS011;42261;52.094;4.326;2023-06-22T19:19:23;4.55;;;2.25;;
56363;SDS011;42261;52.094;4.326;2023-06-22T19:22:08;6.50;;;2.28;;
56363;SDS011;42261;52.094;4.326;2023-06-22T19:24:52;8.30;;;2.78;;
56363;SDS011;42261;52.094;4.326;2023-06-22T19:27:38;6.55;;;2.58;;
56363;SDS011;42261;52.094;4.326;2023-06-22T19:30:22;7.07;;;2.70;;
56363;SDS011;42261;52.094;4.326;2023-06-22T19:33:11;6.45;;;2.85;;
56363;SDS011;42261;52.094;4.326;2023-06-22T19:35:56;7.70;;;2.55;;
56363;SDS011;42261;52.094;4.326;2023-06-22T19:38:41;8.40;;;2.33;;
56363;SDS011;42261;52.094;4.326;2023-06-22T19:41:26;6.75;;;2.72;;
56363;SDS011;42261;52.094;4.326;2023-06-22T19:44:10;7.78;;;2.88;;
56363;SDS011;42261;52.094;4.326;2023-06-22T19:46:54;8.73;;;2.80;;
56363;SDS011;42261;52.094;4.326;2023-06-22T19:49:38;7.38;;;2.90;;
56363;SDS011;42261;52.094;4.326;2023-06-22T19:52:22;6.05;;;2.53;;
56363;SDS011;42261;52.094;4.326;2023-06-22T19:55:08;7.45;;;3.17;;
56363;SDS011;42261;52.094;4.326;2023-06-22T19:57:53;4.57;;;2.35;;
56363;SDS011;42261;52.094;4.326;2023-06-22T20:00:39;11.68;;;3.58;;
56363;SDS011;42261;52.094;4.326;2023-06-22T20:03:27;7.57;;;3.05;;
56363;SDS011;42261;52.094;4.326;2023-06-22T20:06:15;6.50;;;3.00;;
56363;SDS011;42261;52.094;4.326;2023-06-22T20:09:03;8.52;;;2.80;;
56363;SDS011;42261;52.094;4.326;2023-06-22T20:11:55;8.48;;;3.03;;
56363;SDS011;42261;52.094;4.326;2023-06-22T20:14:39;6.63;;;2.70;;
56363;SDS011;42261;52.094;4.326;2023-06-22T20:17:26;7.85;;;2.38;;
56363;SDS011;42261;52.094;4.326;2023-06-22T20:20:23;8.25;;;2.67;;
56363;SDS011;42261;52.094;4.326;2023-06-22T20:23:08;11.20;;;3.08;;
56363;SDS011;42261;52.094;4.326;2023-06-22T20:25:56;5.55;;;2.60;;
56363;SDS011;42261;52.094;4.326;2023-06-22T20:28:43;8.75;;;3.33;;
56363;SDS011;42261;52.094;4.326;2023-06-22T20:31:27;5.03;;;2.80;;
56363;SDS011;42261;52.094;4.326;2023-06-22T20:34:11;6.07;;;2.40;;
56363;SDS011;42261;52.094;4.326;2023-06-22T20:36:55;10.88;;;2.80;;
56363;SDS011;42261;52.094;4.326;2023-06-22T20:39:39;5.95;;;2.35;;
56363;SDS011;42261;52.094;4.326;2023-06-22T20:42:24;4.93;;;2.10;;
56363;SDS011;42261;52.094;4.326;2023-06-22T20:45:08;7.53;;;2.10;;
56363;SDS011;42261;52.094;4.326;2023-06-22T20:47:54;3.42;;;2.10;;
56363;SDS011;42261;52.094;4.326;2023-06-22T20:50:40;9.38;;;2.47;;
56363;SDS011;42261;52.094;4.326;2023-06-22T20:53:24;10.43;;;2.17;;
56363;SDS011;42261;52.094;4.326;2023-06-22T20:56:08;7.97;;;2.17;;
56363;SDS011;42261;52.094;4.326;2023-06-22T20:58:52;6.85;;;2.25;;
56363;SDS011;42261;52.094;4.326;2023-06-22T21:01:36;5.35;;;2.00;;
56363;SDS011;42261;52.094;4.326;2023-06-22T21:04:20;5.10;;;2.22;;
56363;SDS011;42261;52.094;4.326;2023-06-22T21:07:04;7.72;;;2.55;;
56363;SDS011;42261;52.094;4.326;2023-06-22T21:09:48;5.95;;;2.75;;
56363;SDS011;42261;52.094;4.326;2023-06-22T21:12:32;4.15;;;2.17;;